Time;durP1;ratioP1;P1;durP2;ratioP2;P2;SDS_P1;SDS_P2;PMS_P1;PMS_P2;Temp;Humidity;BMP_temperature;BMP_pressure;BME280_temperature;BME280_humidity;BME280_pressure;Samples;Min_cycle;Max_cycle;Signal;HPM_P1;HPM_P2
2021/01/30 00:01:20;;;;;;;18.87;8.90;;;;;;;-8.18;85.01;97752.47;1789566;80;21112;-71
2021/01/30 00:03:48;;;;;;;25.02;10.20;;;;;;;-8.15;85.20;97753.84;1789540;80;21156;-71
2021/01/30 00:06:16;;;;;;;27.42;11.22;;;;;;;-8.12;85.28;97760.03;1788524;80;21379;-72
2021/01/30 00:08:43;;;;;;;20.05;9.83;;;;;;;-8.10;85.39;97756.08;1756861;80;21560;-72
2021/01/30 00:11:13;;;;;;;25.72;10.65;;;;;;;-8.06;85.37;97761.70;1792598;80;21005;-72
2021/01/30 00:13:43;;;;;;;20.35;8.80;;;;;;;-8.05;85.35;97758.80;1792676;80;21179;-72
2021/01/30 00:16:14;;;;;;;20.30;9.18;;;;;;;-8.04;85.34;97760.94;1758404;81;21120;-72
2021/01/30 00:18:42;;;;;;;20.75;8.08;;;;;;;-8.02;85.45;97762.31;1789662;80;21354;-72
2021/01/30 00:21:10;;;;;;;19.87;8.45;;;;;;;-8.00;85.68;97774.87;1780779;80;21124;-71
2021/01/30 00:23:38;;;;;;;16.55;8.15;;;;;;;-7.96;85.77;97775.20;1789609;80;21144;-71
2021/01/30 00:26:06;;;;;;;25.65;9.30;;;;;;;-7.91;85.92;97773.15;1789580;80;21153;-71
2021/01/30 00:28:33;;;;;;;24.02;8.58;;;;;;;-7.86;86.03;97774.56;1789552;80;21157;-71
2021/01/30 00:31:01;;;;;;;16.25;8.03;;;;;;;-7.81;86.17;97774.66;1750097;82;21457;-71
2021/01/30 00:33:28;;;;;;;17.20;8.05;;;;;;;-7.75;86.24;97780.35;1762350;81;21036;-71
2021/01/30 00:35:57;;;;;;;12.33;7.05;;;;;;;-7.71;86.15;97782.30;1762408;81;21183;-71
2021/01/30 00:38:24;;;;;;;18.98;8.33;;;;;;;-7.67;86.05;97779.95;1762439;81;22043;-72
2021/01/30 00:40:52;;;;;;;15.58;7.50;;;;;;;-7.62;85.94;97789.89;1762327;81;21198;-72
2021/01/30 00:43:19;;;;;;;18.07;8.38;;;;;;;-7.61;85.81;97788.84;1762431;81;21335;-71
2021/01/30 00:45:47;;;;;;;21.62;8.50;;;;;;;-7.59;85.72;97798.73;1762432;81;21026;-71
2021/01/30 00:48:15;;;;;;;24.75;8.30;;;;;;;-7.59;85.62;97792.88;1762379;81;21071;-70
2021/01/30 00:50:43;;;;;;;21.48;9.10;;;;;;;-7.60;85.46;97789.93;1762416;81;21535;-70
2021/01/30 00:53:11;;;;;;;18.98;8.33;;;;;;;-7.60;85.33;97795.27;1762226;81;21539;-70
2021/01/30 00:55:41;;;;;;;18.75;8.08;;;;;;;-7.62;85.26;97787.23;1762631;81;22182;-70
2021/01/30 00:58:09;;;;;;;16.87;7.80;;;;;;;-7.68;85.20;97790.33;1762688;81;21131;-69
2021/01/30 01:00:37;;;;;;;17.17;8.18;;;;;;;-7.69;85.18;97789.52;1734762;81;21163;-70
2021/01/30 01:03:08;;;;;;;17.37;8.28;;;;;;;-7.69;85.31;97786.05;1716649;83;21042;-70
2021/01/30 01:05:55;;;;;;;16.50;7.90;;;;;;;-7.63;85.62;97781.61;1845116;76;21986;-70
2021/01/30 01:08:23;;;;;;;18.00;7.83;;;;;;;-7.63;85.71;97786.94;1815260;79;20874;-70
2021/01/30 01:10:51;;;;;;;13.65;6.85;;;;;;;-7.59;85.84;97782.22;1815244;79;21468;-70
2021/01/30 01:13:19;;;;;;;14.55;7.10;;;;;;;-7.56;85.92;97780.93;1815175;79;20977;-70
2021/01/30 01:15:47;;;;;;;14.93;6.70;;;;;;;-7.51;85.99;97779.12;1815276;78;20966;-70
2021/01/30 01:18:15;;;;;;;14.13;7.28;;;;;;;-7.47;85.99;97776.25;1815235;79;20921;-70
2021/01/30 01:20:43;;;;;;;16.70;7.03;;;;;;;-7.47;85.79;97767.45;1815305;79;20973;-70
2021/01/30 01:23:11;;;;;;;16.70;7.33;;;;;;;-7.53;85.35;97771.12;1815302;79;21181;-70
2021/01/30 01:25:38;;;;;;;15.98;7.37;;;;;;;-7.63;84.79;97774.42;1791218;79;21898;-70
2021/01/30 01:28:05;;;;;;;16.23;8.05;;;;;;;-7.75;84.38;97779.02;1783143;80;20928;-70
2021/01/30 01:30:33;;;;;;;21.25;9.50;;;;;;;-7.93;83.90;97776.05;1783003;80;21876;-70
2021/01/30 01:33:01;;;;;;;23.02;10.28;;;;;;;-8.14;83.15;97772.25;1748750;82;20952;-70
2021/01/30 01:35:31;;;;;;;31.35;12.78;;;;;;;-8.41;82.62;97774.70;1748728;82;21997;-70
2021/01/30 01:38:00;;;;;;;28.50;11.90;;;;;;;-8.67;82.28;97768.63;1748770;82;21562;-70
2021/01/30 01:40:35;;;;;;;28.57;11.15;;;;;;;-8.90;82.06;97780.12;1748487;82;21194;-70
2021/01/30 01:43:11;;;;;;;34.27;12.43;;;;;;;-9.09;82.26;97767.48;1748438;82;21122;-70
2021/01/30 01:45:39;;;;;;;28.60;11.97;;;;;;;-9.26;82.21;97771.11;1740732;82;20997;-70
2021/01/30 01:48:13;;;;;;;27.25;10.50;;;;;;;-9.45;82.01;97765.91;1740748;82;21376;-71
2021/01/30 01:50:43;;;;;;;24.37;9.78;;;;;;;-9.61;81.95;97771.91;1740551;81;21237;-71
2021/01/30 01:53:14;;;;;;;31.17;11.03;;;;;;;-9.77;82.17;97766.75;1740779;82;21028;-71
2021/01/30 01:55:49;;;;;;;28.25;10.95;;;;;;;-9.87;82.42;97762.55;1740751;82;20930;-71
2021/01/30 01:58:17;;;;;;;33.33;11.80;;;;;;;-9.97;82.55;97756.98;1740833;82;21033;-72
2021/01/30 02:00:46;;;;;;;31.42;11.12;;;;;;;-10.06;82.67;97757.84;1732000;82;21208;-72
2021/01/30 02:03:17;;;;;;;21.93;8.83;;;;;;;-10.12;82.65;97757.94;1704468;84;20966;-72
2021/01/30 02:05:45;;;;;;;24.40;9.60;;;;;;;-10.19;82.66;97757.25;1727685;82;21016;-72
2021/01/30 02:08:16;;;;;;;27.50;10.35;;;;;;;-10.27;82.69;97764.20;1728460;81;20901;-71
2021/01/30 02:10:46;;;;;;;25.87;10.10;;;;;;;-10.35;82.83;97760.84;1728537;83;21135;-71
2021/01/30 02:13:30;;;;;;;21.65;8.65;;;;;;;-10.41;82.96;97757.78;1728463;83;22089;-71
2021/01/30 02:16:07;;;;;;;25.70;10.48;;;;;;;-10.47;83.09;97752.05;1744466;82;21142;-72
2021/01/30 02:18:46;;;;;;;20.68;9.05;;;;;;;-10.51;83.26;97744.77;1747183;82;21574;-71
2021/01/30 02:21:54;;;;;;;29.20;10.20;;;;;;;-10.57;83.27;97733.22;1748166;82;20932;-71
2021/01/30 02:24:53;;;;;;;35.43;12.07;;;;;;;-10.63;83.22;97733.30;1747946;82;21194;-70
2021/01/30 02:27:58;;;;;;;31.75;12.10;;;;;;;-10.71;83.41;97731.25;1748178;82;21206;-70
2021/01/30 02:30:55;;;;;;;37.17;13.10;;;;;;;-10.74;83.64;97735.68;1747922;82;20948;-71
2021/01/30 02:34:06;;;;;;;46.25;15.03;;;;;;;-10.79;83.62;97745.33;1748116;82;20924;-70
2021/01/30 02:37:08;;;;;;;42.93;14.95;;;;;;;-10.85;83.51;97733.78;1698585;84;21667;-70
2021/01/30 02:39:52;;;;;;;53.90;16.80;;;;;;;-10.90;83.56;97728.34;1873517;76;22800;-70
2021/01/30 02:42:32;;;;;;;44.03;14.63;;;;;;;-10.98;83.66;97730.00;1841428;78;20959;-70
2021/01/30 02:45:15;;;;;;;49.33;15.90;;;;;;;-11.00;83.75;97716.16;1841581;78;21490;-70
2021/01/30 02:47:45;;;;;;;39.25;16.02;;;;;;;-11.04;83.81;97709.69;1841572;77;20921;-71
2021/01/30 02:50:24;;;;;;;37.53;15.72;;;;;;;-11.02;84.03;97708.95;1841414;77;20999;-72
2021/01/30 02:52:54;;;;;;;46.25;13.90;;;;;;;-10.99;84.18;97711.15;1811716;78;20924;-72
2021/01/30 02:55:21;;;;;;;32.58;12.68;;;;;;;-10.96;84.35;97712.00;1821021;78;20908;-71
2021/01/30 02:57:49;;;;;;;46.95;19.73;;;;;;;-10.91;84.47;97724.58;1841356;78;21358;-71
2021/01/30 03:00:18;;;;;;;51.42;19.02;;;;;;;-10.90;84.34;97726.20;1782947;76;21532;-71
2021/01/30 03:02:46;;;;;;;57.05;20.27;;;;;;;-10.88;84.43;97727.59;1875737;76;21015;-70
2021/01/30 03:05:13;;;;;;;48.87;19.02;;;;;;;-10.84;84.59;97727.45;1790634;80;20906;-71
2021/01/30 03:07:59;;;;;;;45.43;16.52;;;;;;;-10.76;84.80;97722.35;1814125;79;20919;-71
2021/01/30 03:10:32;;;;;;;42.48;18.00;;;;;;;-10.74;84.83;97715.80;1777434;80;21251;-71
2021/01/30 03:13:35;;;;;;;37.55;13.98;;;;;;;-10.70;84.83;97715.64;1775250;80;20945;-71
2021/01/30 03:16:11;;;;;;;40.63;15.32;;;;;;;-10.67;84.71;97715.19;1735192;80;20929;-71
2021/01/30 03:18:45;;;;;;;31.75;13.85;;;;;;;-10.66;84.58;97710.70;1775104;79;21049;-72
2021/01/30 03:21:14;;;;;;;28.05;12.13;;;;;;;-10.63;84.67;97712.09;1774164;80;20928;-72
2021/01/30 03:23:41;;;;;;;29.50;12.53;;;;;;;-10.59;84.85;97711.94;1775194;80;21185;-72
2021/01/30 03:26:15;;;;;;;27.75;11.63;;;;;;;-10.54;84.92;97701.46;1746140;80;21556;-71
2021/01/30 03:28:43;;;;;;;31.93;12.78;;;;;;;-10.53;84.83;97698.58;1744412;81;21135;-72
2021/01/30 03:31:11;;;;;;;19.82;10.00;;;;;;;-10.49;84.96;97699.75;1744408;82;21088;-72
2021/01/30 03:33:39;;;;;;;29.30;11.48;;;;;;;-10.42;85.31;97693.83;1744544;82;21575;-72
2021/01/30 03:36:07;;;;;;;31.00;12.00;;;;;;;-10.36;85.56;97700.85;1749937;81;21366;-71
2021/01/30 03:38:34;;;;;;;29.45;11.28;;;;;;;-10.30;85.75;97704.44;1763392;81;21009;-71
2021/01/30 03:41:03;;;;;;;23.87;11.03;;;;;;;-10.21;86.04;97712.37;1765681;81;20937;-71
2021/01/30 03:43:31;;;;;;;22.37;11.35;;;;;;;-10.14;86.23;97710.39;1765771;81;20937;-71
2021/01/30 03:45:59;;;;;;;27.98;12.65;;;;;;;-10.08;86.21;97712.66;1765898;81;21146;-71
2021/01/30 03:48:28;;;;;;;23.65;10.68;;;;;;;-10.06;86.09;97711.39;1765794;81;21205;-72
2021/01/30 03:50:55;;;;;;;25.30;10.85;;;;;;;-10.05;85.82;97710.87;1765259;81;21040;-71
2021/01/30 03:53:23;;;;;;;25.27;12.15;;;;;;;-10.07;85.42;97717.73;1765262;81;21035;-71
2021/01/30 03:55:50;;;;;;;24.43;10.82;;;;;;;-10.07;85.38;97720.39;1765247;81;21071;-71
2021/01/30 03:58:18;;;;;;;21.90;9.98;;;;;;;-10.07;85.15;97719.58;1765224;81;21139;-71
2021/01/30 04:00:45;;;;;;;28.45;11.57;;;;;;;-10.11;84.81;97713.11;1767322;81;21667;-71
2021/01/30 04:03:14;;;;;;;21.27;8.95;;;;;;;-10.16;84.65;97707.16;1798664;79;21955;-71
2021/01/30 04:05:42;;;;;;;28.05;9.80;;;;;;;-10.18;84.54;97701.27;1750950;81;21077;-71
2021/01/30 04:08:10;;;;;;;26.00;10.65;;;;;;;-10.22;84.42;97706.77;1798735;79;21076;-71
2021/01/30 04:10:38;;;;;;;29.12;11.33;;;;;;;-10.27;84.31;97712.47;1767246;81;20994;-71
2021/01/30 04:13:09;;;;;;;19.90;9.00;;;;;;;-10.28;84.51;97704.22;1799060;79;21565;-71
2021/01/30 04:15:42;;;;;;;23.75;10.08;;;;;;;-10.28;84.52;97708.20;1798763;79;21013;-71
2021/01/30 04:18:11;;;;;;;26.68;10.20;;;;;;;-10.32;84.29;97704.38;1767455;81;20934;-70
2021/01/30 04:20:39;;;;;;;24.70;9.78;;;;;;;-10.34;84.17;97699.30;1798692;79;20993;-71
2021/01/30 04:23:07;;;;;;;21.17;10.18;;;;;;;-10.38;84.09;97701.59;1765778;81;21389;-71
2021/01/30 04:25:35;;;;;;;24.43;10.03;;;;;;;-10.41;83.83;97695.97;1798653;79;22237;-71
2021/01/30 04:28:04;;;;;;;39.63;15.05;;;;;;;-10.45;83.90;97698.27;1767436;81;20986;-71
2021/01/30 04:30:32;;;;;;;74.67;25.08;;;;;;;-10.43;84.00;97696.70;1798981;79;21315;-70
2021/01/30 04:33:01;;;;;;;86.80;28.20;;;;;;;-10.44;83.93;97691.11;1758441;79;20963;-70
2021/01/30 04:35:32;;;;;;;87.02;30.12;;;;;;;-10.44;83.86;97691.11;1718222;83;20992;-70
2021/01/30 04:38:01;;;;;;;60.78;24.63;;;;;;;-10.44;83.73;97696.42;1718142;83;21203;-70
2021/01/30 04:40:44;;;;;;;76.17;28.23;;;;;;;-10.42;83.67;97697.00;1712369;83;21048;-73
2021/01/30 04:43:35;;;;;;;64.03;23.42;;;;;;;-10.42;83.60;97696.48;1725758;83;21500;-71
2021/01/30 04:46:11;;;;;;;50.85;21.42;;;;;;;-10.39;83.72;97695.19;1725709;83;21111;-72
2021/01/30 04:48:59;;;;;;;44.85;19.92;;;;;;;-10.34;83.80;97696.12;1725803;83;21044;-70
2021/01/30 04:51:50;;;;;;;55.45;26.95;;;;;;;-10.26;84.25;97692.86;1725752;83;21250;-71
2021/01/30 04:54:37;;;;;;;71.77;25.52;;;;;;;-10.23;84.09;97698.52;1725540;83;21154;-71
2021/01/30 04:57:16;;;;;;;73.42;30.88;;;;;;;-10.20;84.39;97696.73;1724628;83;20969;-70
2021/01/30 05:00:14;;;;;;;51.10;24.30;;;;;;;-10.19;84.31;97689.58;1743626;81;21552;-70
2021/01/30 05:02:57;;;;;;;62.35;26.25;;;;;;;-10.17;84.22;97702.08;1760358;81;21583;-69
2021/01/30 05:05:25;;;;;;;65.60;28.75;;;;;;;-10.16;84.49;97700.52;1759779;81;21464;-69
2021/01/30 05:08:03;;;;;;;58.73;28.00;;;;;;;-10.09;84.77;97707.86;1761391;81;20965;-70
2021/01/30 05:10:45;;;;;;;33.38;16.12;;;;;;;-10.02;84.84;97692.64;1889699;76;22664;-69
2021/01/30 05:13:28;;;;;;;25.95;11.08;;;;;;;-10.01;84.93;97704.06;1855673;77;20945;-71
2021/01/30 05:16:00;;;;;;;21.95;9.10;;;;;;;-9.96;84.93;97706.03;1861068;77;21856;-72
2021/01/30 05:18:35;;;;;;;28.95;9.53;;;;;;;-9.90;85.11;97712.56;1860863;77;20894;-73
2021/01/30 05:21:23;;;;;;;21.68;9.30;;;;;;;-9.82;85.28;97715.40;1860900;77;20964;-71
2021/01/30 05:23:52;;;;;;;25.12;9.43;;;;;;;-9.78;85.34;97712.55;1860881;77;21553;-71
2021/01/30 05:26:40;;;;;;;22.85;10.35;;;;;;;-9.66;86.18;97709.38;1827071;77;20948;-75
2021/01/30 05:29:27;;;;;;;24.63;9.73;;;;;;;-9.59;86.07;97713.24;1826769;78;21486;-69
2021/01/30 05:32:16;;;;;;;27.50;10.78;;;;;;;-9.58;86.02;97715.67;1826730;78;21046;-71
2021/01/30 05:34:57;;;;;;;27.65;9.80;;;;;;;-9.57;85.96;97723.92;1826033;78;21011;-69
2021/01/30 05:37:29;;;;;;;26.87;10.03;;;;;;;-9.54;86.02;97727.45;1826916;78;21015;-72
2021/01/30 05:40:30;;;;;;;29.05;10.70;;;;;;;-9.49;86.10;97729.41;1827163;78;20927;-71
2021/01/30 05:43:30;;;;;;;28.57;11.43;;;;;;;-9.47;86.05;97736.11;1825508;78;21556;-70
2021/01/30 05:45:59;;;;;;;32.63;12.68;;;;;;;-9.47;85.87;97745.41;1826395;78;20971;-73
2021/01/30 05:48:36;;;;;;;25.92;10.30;;;;;;;-9.47;85.96;97745.41;1826423;78;20967;-71
2021/01/30 05:51:27;;;;;;;27.87;11.40;;;;;;;-9.49;85.68;97744.83;1826356;78;21560;-73
2021/01/30 05:53:55;;;;;;;30.20;11.00;;;;;;;-9.47;86.07;97740.09;1825906;78;21188;-78
2021/01/30 05:56:23;;;;;;;37.73;11.83;;;;;;;-9.43;85.96;97732.47;1825843;78;21359;-75
2021/01/30 05:58:50;;;;;;;33.78;12.65;;;;;;;-9.43;85.83;97733.80;1827873;77;21074;-81
2021/01/30 06:01:28;;;;;;;29.00;11.05;;;;;;;-9.46;85.66;97728.95;1841354;77;21093;-82
2021/01/30 06:04:07;;;;;;;32.55;12.88;;;;;;;-9.42;86.06;97728.77;1841509;78;21481;-79
2021/01/30 06:06:39;;;;;;;28.70;11.83;;;;;;;-9.36;86.18;97728.66;1827685;77;21011;-80
2021/01/30 06:09:11;;;;;;;30.65;12.80;;;;;;;-9.29;86.21;97720.56;1823614;78;22173;-74
2021/01/30 06:11:49;;;;;;;30.32;11.50;;;;;;;-9.21;86.33;97712.72;1832626;78;21136;-74
2021/01/30 06:14:37;;;;;;;28.62;12.85;;;;;;;-9.13;86.71;97700.41;1832948;78;21454;-74
2021/01/30 06:17:16;;;;;;;32.65;12.50;;;;;;;-9.07;86.63;97700.27;1804143;78;20880;-81
2021/01/30 06:19:44;;;;;;;29.95;11.68;;;;;;;-8.96;86.87;97697.30;1824242;78;21090;-74
2021/01/30 06:22:22;;;;;;;32.40;11.48;;;;;;;-8.88;87.12;97688.95;1802674;78;21805;-68
2021/01/30 06:24:50;;;;;;;31.30;11.05;;;;;;;-8.77;87.14;97690.77;1832245;78;20913;-67
2021/01/30 06:27:23;;;;;;;35.60;13.32;;;;;;;-8.68;87.15;97695.99;1832213;78;21467;-71
2021/01/30 06:29:54;;;;;;;37.67;13.30;;;;;;;-8.57;87.32;97692.97;1832247;78;20977;-68
2021/01/30 06:32:26;;;;;;;41.98;16.40;;;;;;;-8.49;87.07;97696.58;1832166;78;20976;-71
2021/01/30 06:35:11;;;;;;;32.85;12.68;;;;;;;-8.40;87.09;97695.67;1832220;78;22176;-70
2021/01/30 06:37:46;;;;;;;41.53;13.55;;;;;;;-8.32;86.93;97699.80;1826435;78;20980;-74
2021/01/30 06:40:59;;;;;;;42.10;14.53;;;;;;;-8.25;86.98;97693.77;1832148;78;21004;-73
2021/01/30 06:43:31;;;;;;;32.23;12.28;;;;;;;-8.18;86.99;97688.58;1755498;81;20974;-72
2021/01/30 06:46:15;;;;;;;30.08;12.65;;;;;;;-8.09;87.23;97686.33;1722736;83;20985;-71
2021/01/30 06:48:50;;;;;;;26.12;11.08;;;;;;;-8.03;87.13;97680.81;1697369;84;22291;-72
2021/01/30 06:51:36;;;;;;;32.60;13.18;;;;;;;-7.94;87.27;97682.55;1707053;84;21211;-73
2021/01/30 06:54:25;;;;;;;27.42;11.08;;;;;;;-7.86;87.08;97680.01;1722448;83;21620;-71
2021/01/30 06:57:14;;;;;;;31.90;11.75;;;;;;;-7.80;86.80;97679.84;1709702;83;21147;-69
2021/01/30 06:59:59;;;;;;;29.72;12.90;;;;;;;-7.76;86.53;97682.30;1712365;83;21144;-69
2021/01/30 07:02:39;;;;;;;28.92;11.73;;;;;;;-7.72;86.42;97679.44;1729942;83;21285;-67
2021/01/30 07:05:20;;;;;;;28.02;12.58;;;;;;;-7.64;86.39;97679.55;1729863;83;27032;-68
2021/01/30 07:08:17;;;;;;;27.60;12.28;;;;;;;-7.64;85.91;97679.55;1730118;82;21188;-69
2021/01/30 07:11:12;;;;;;;26.60;10.28;;;;;;;-7.63;85.91;97686.49;1729858;83;21177;-68
2021/01/30 07:13:57;;;;;;;35.70;13.08;;;;;;;-7.58;86.13;97686.56;1730030;83;21213;-69
2021/01/30 07:16:56;;;;;;;31.12;13.53;;;;;;;-7.54;85.79;97687.69;1730101;83;21211;-68
2021/01/30 07:19:48;;;;;;;31.73;13.70;;;;;;;-7.52;85.86;97693.59;1730141;82;21597;-68
2021/01/30 07:22:20;;;;;;;35.48;14.15;;;;;;;-7.43;86.25;97698.75;1729600;83;21189;-69
2021/01/30 07:24:52;;;;;;;35.17;14.75;;;;;;;-7.25;86.44;97699.00;1727738;82;21185;-68
2021/01/30 07:27:37;;;;;;;29.25;12.40;;;;;;;-7.11;86.28;97692.78;1724401;83;21106;-68
2021/01/30 07:30:13;;;;;;;29.15;13.18;;;;;;;-6.96;86.30;97690.84;1724455;83;22144;-68
2021/01/30 07:32:50;;;;;;;33.25;13.50;;;;;;;-6.84;86.00;97693.63;1700652;83;21078;-68
2021/01/30 07:35:40;;;;;;;40.50;16.30;;;;;;;-6.76;85.60;97690.52;1724403;83;21150;-69
2021/01/30 07:38:21;;;;;;;34.67;13.85;;;;;;;-6.70;85.41;97685.52;1711779;83;21236;-69
2021/01/30 07:41:02;;;;;;;36.20;15.20;;;;;;;-6.63;85.41;97682.66;1711922;83;21191;-68
2021/01/30 07:43:50;;;;;;;41.00;17.27;;;;;;;-6.60;85.08;97678.69;1704864;83;21402;-68
2021/01/30 07:46:37;;;;;;;46.55;18.98;;;;;;;-6.60;84.83;97682.69;1712032;83;21156;-69
2021/01/30 07:49:37;;;;;;;115.30;48.42;;;;;;;-6.54;85.08;97676.34;1711983;83;21159;-69
2021/01/30 07:52:09;;;;;;;44.90;19.67;;;;;;;-6.47;85.08;97663.61;1755967;81;21124;-68
2021/01/30 07:54:45;;;;;;;32.05;14.87;;;;;;;-6.41;85.31;97679.43;1742843;82;21607;-68
2021/01/30 07:57:32;;;;;;;39.70;15.58;;;;;;;-6.35;85.32;97669.05;1742716;82;21352;-68
2021/01/30 08:00:26;;;;;;;36.90;17.98;;;;;;;-6.30;85.40;97663.48;1709710;82;21060;-69
2021/01/30 08:03:35;;;;;;;44.93;25.52;;;;;;;-6.25;85.38;97662.19;1734870;82;21148;-69
2021/01/30 08:06:42;;;;;;;43.23;17.85;;;;;;;-6.24;85.15;97661.13;1730885;82;21607;-69
2021/01/30 08:09:31;;;;;;;36.20;15.25;;;;;;;-6.22;85.37;97669.16;1730264;82;21528;-69
2021/01/30 08:12:11;;;;;;;30.15;14.13;;;;;;;-6.13;85.44;97666.84;1733975;82;21382;-70
2021/01/30 08:15:09;;;;;;;30.97;15.58;;;;;;;-6.09;85.23;97663.94;1742604;82;21013;-69
2021/01/30 08:17:54;;;;;;;34.88;15.25;;;;;;;-6.04;85.36;97666.66;1755189;81;21015;-69
2021/01/30 08:20:36;;;;;;;37.42;15.75;;;;;;;-5.96;85.44;97671.53;1742641;82;21610;-69
2021/01/30 08:23:19;;;;;;;;;;;;;;;-5.93;85.39;97669.69;1729575;83;21044;-70
2021/01/30 08:25:55;;;;;;;49.38;20.43;;;;;;;-5.89;85.48;97665.44;1725412;83;21202;-69
2021/01/30 08:28:40;;;;;;;44.65;17.65;;;;;;;-5.84;85.81;97660.11;1700886;82;20981;-70
2021/01/30 08:31:07;;;;;;;43.68;19.00;;;;;;;-5.81;85.60;97662.80;1714564;83;21161;-69
2021/01/30 08:34:05;;;;;;;42.08;17.75;;;;;;;-5.79;85.94;97665.48;1720554;83;21045;-69
2021/01/30 08:36:42;;;;;;;124.47;36.30;;;;;;;-5.75;85.84;97660.41;1646869;87;21144;-70
2021/01/30 08:39:30;;;;;;;84.47;30.20;;;;;;;-5.67;86.16;97654.05;1704304;83;21386;-70
2021/01/30 08:42:19;;;;;;;82.85;31.75;;;;;;;-5.59;85.97;97651.96;1740079;81;22311;-71
2021/01/30 08:45:04;;;;;;;66.85;23.90;;;;;;;-5.53;86.24;97656.28;1716056;82;21106;-68
2021/01/30 08:47:36;;;;;;;56.68;20.72;;;;;;;-5.44;85.95;97654.20;1737983;82;21147;-68
2021/01/30 08:50:12;;;;;;;32.83;16.07;;;;;;;-5.42;85.68;97654.75;1737647;82;21207;-68
2021/01/30 08:53:13;;;;;;;39.70;16.45;;;;;;;-5.38;85.71;97653.16;1735653;82;21492;-69
2021/01/30 08:55:50;;;;;;;29.60;13.65;;;;;;;-5.38;85.46;97647.81;1732743;82;21081;-68
2021/01/30 08:58:41;;;;;;;35.25;14.25;;;;;;;-5.43;85.20;97644.31;1732603;82;21185;-69
2021/01/30 09:01:23;;;;;;;34.23;16.23;;;;;;;-5.43;85.49;97647.79;1729048;82;21702;-70
2021/01/30 09:03:58;;;;;;;50.75;25.77;;;;;;;-5.39;85.93;97641.39;1702956;84;21167;-69
2021/01/30 09:06:51;;;;;;;32.70;14.80;;;;;;;-5.27;86.27;97641.19;1703266;84;21426;-71
2021/01/30 09:09:26;;;;;;;36.15;14.95;;;;;;;-5.22;86.65;97631.84;1703148;84;21168;-70
2021/01/30 09:12:02;;;;;;;88.72;27.65;;;;;;;-5.19;87.14;97627.28;1703229;84;20998;-69
2021/01/30 09:14:36;;;;;;;43.08;17.70;;;;;;;-5.15;87.49;97612.32;1703356;84;21088;-68
2021/01/30 09:17:22;;;;;;;32.95;13.18;;;;;;;-5.10;87.96;97602.98;1703434;84;21624;-71
2021/01/30 09:20:13;;;;;;;25.30;12.40;;;;;;;-5.03;88.06;97604.88;1703236;84;21384;-69
2021/01/30 09:23:04;;;;;;;28.52;12.20;;;;;;;-4.99;87.68;97605.97;1675192;81;21224;-68
2021/01/30 09:25:59;;;;;;;32.80;14.87;;;;;;;-4.99;87.04;97607.30;1720992;82;21612;-69
2021/01/30 09:28:30;;;;;;;79.50;29.82;;;;;;;-5.01;87.16;97602.75;1712557;82;21163;-68
2021/01/30 09:31:01;;;;;;;34.10;15.40;;;;;;;-5.01;87.20;97601.41;1703053;84;21622;-68
2021/01/30 09:33:35;;;;;;;36.10;16.15;;;;;;;-5.03;87.09;97606.22;1703182;84;21453;-68
2021/01/30 09:36:25;;;;;;;35.98;17.23;;;;;;;-5.07;87.06;97603.80;1703227;84;21171;-67
2021/01/30 09:38:59;;;;;;;29.00;12.82;;;;;;;-5.08;87.52;97598.17;1632930;87;21805;-66
2021/01/30 09:41:34;;;;;;;23.57;10.93;;;;;;;-5.06;87.60;97578.11;1724379;82;21559;-66
2021/01/30 09:44:25;;;;;;;29.18;12.73;;;;;;;-5.03;88.04;97571.43;1751699;81;21176;-70
2021/01/30 09:46:56;;;;;;;42.65;16.85;;;;;;;-4.99;88.47;97573.85;1752082;82;21220;-70
2021/01/30 09:49:28;;;;;;;37.98;16.42;;;;;;;-4.95;88.57;97566.91;1751600;81;21266;-70
2021/01/30 09:51:56;;;;;;;59.83;19.82;;;;;;;-4.93;88.62;97567.45;1755397;81;21157;-70
2021/01/30 09:54:25;;;;;;;51.50;18.35;;;;;;;-4.90;89.01;97575.48;1681533;81;21199;-71
2021/01/30 09:56:56;;;;;;;59.45;19.95;;;;;;;-4.86;89.49;97572.02;1761937;80;21484;-72
2021/01/30 09:59:26;;;;;;;38.30;16.17;;;;;;;-4.80;89.64;97574.17;1753201;80;22280;-72
2021/01/30 10:01:54;;;;;;;34.67;14.03;;;;;;;-4.74;89.64;97571.23;1787883;80;21166;-70
2021/01/30 10:04:27;;;;;;;47.78;16.60;;;;;;;-4.68;89.62;97563.48;1734061;80;21120;-71
2021/01/30 10:07:11;;;;;;;40.10;16.80;;;;;;;-4.63;89.54;97564.03;1788320;80;21088;-70
2021/01/30 10:09:48;;;;;;;42.90;15.00;;;;;;;-4.60;89.64;97560.79;1788199;80;21065;-66
2021/01/30 10:12:20;;;;;;;43.68;16.37;;;;;;;-4.57;89.80;97554.91;1788328;80;21193;-67
2021/01/30 10:14:56;;;;;;;41.63;15.13;;;;;;;-4.58;89.06;97558.65;1788449;80;21164;-67
2021/01/30 10:17:38;;;;;;;47.80;18.25;;;;;;;-4.58;89.56;97550.62;1788564;80;21060;-68
2021/01/30 10:20:10;;;;;;;40.65;14.93;;;;;;;-4.53;89.71;97545.80;1788708;80;21184;-68
2021/01/30 10:22:42;;;;;;;43.48;16.07;;;;;;;-4.48;89.79;97541.25;1788779;80;21143;-68
2021/01/30 10:25:18;;;;;;;37.15;14.83;;;;;;;-4.47;89.41;97536.16;1788321;80;21356;-68
2021/01/30 10:27:47;;;;;;;32.35;14.23;;;;;;;-4.42;89.80;97530.00;1759295;80;21129;-83
2021/01/30 10:30:17;;;;;;;33.48;13.18;;;;;;;-4.33;90.11;97528.39;1788336;80;21045;-72
2021/01/30 10:32:53;;;;;;;29.95;14.13;;;;;;;-4.31;89.26;97523.58;1788355;79;21552;-85
2021/01/30 10:35:34;;;;;;;25.88;11.97;;;;;;;-4.31;89.50;97526.25;1788663;80;21156;-82
2021/01/30 10:38:08;;;;;;;27.10;12.50;;;;;;;-4.30;89.21;97521.70;1788414;80;21359;-75
2021/01/30 10:40:43;;;;;;;69.00;24.85;;;;;;;-4.32;89.41;97519.29;1788253;80;21192;-74
2021/01/30 10:43:28;;;;;;;41.75;18.07;;;;;;;-4.30;89.64;97522.50;1788519;80;22204;-70
2021/01/30 10:45:58;;;;;;;38.28;15.65;;;;;;;-4.29;89.82;97508.03;1774484;80;21635;-70
2021/01/30 10:48:34;;;;;;;29.35;13.50;;;;;;;-4.24;89.98;97502.67;1788239;79;21136;-69
2021/01/30 10:51:12;;;;;;;54.77;17.73;;;;;;;-4.26;89.41;97493.30;1786906;80;21370;-69
2021/01/30 10:53:41;;;;;;;29.45;12.90;;;;;;;-4.27;90.13;97485.80;1751449;80;21588;-68
2021/01/30 10:56:22;;;;;;;21.57;11.93;;;;;;;-4.25;90.23;97486.33;1782867;79;21552;-69
2021/01/30 10:58:52;;;;;;;29.80;13.25;;;;;;;-4.28;89.76;97479.38;1752922;80;21100;-68
2021/01/30 11:01:25;;;;;;;22.48;11.48;;;;;;;-4.38;90.91;97476.16;1782707;80;21180;-68
2021/01/30 11:03:55;;;;;;;30.85;12.93;;;;;;;-4.42;92.15;97458.49;1768314;80;21372;-68
2021/01/30 11:06:45;;;;;;;27.65;12.40;;;;;;;-4.45;93.08;97454.21;1777290;80;21132;-68
2021/01/30 11:09:33;;;;;;;29.60;13.13;;;;;;;-4.47;93.74;97445.64;1781818;80;21061;-68
2021/01/30 11:12:16;;;;;;;39.20;15.03;;;;;;;-4.44;94.74;97446.44;1782714;80;21085;-68
2021/01/30 11:14:44;;;;;;;33.70;12.47;;;;;;;-4.37;95.10;97441.61;1782942;80;21563;-68
2021/01/30 11:17:25;;;;;;;24.70;12.28;;;;;;;-4.31;95.19;97436.52;1782676;80;21203;-68
2021/01/30 11:19:53;;;;;;;24.40;11.47;;;;;;;-4.24;95.61;97431.67;1783148;80;21745;-68
2021/01/30 11:22:23;;;;;;;23.32;11.57;;;;;;;-4.18;95.52;97423.89;1782776;80;21206;-67
2021/01/30 11:24:55;;;;;;;28.98;12.50;;;;;;;-4.15;95.54;97416.65;1772660;80;21571;-69
2021/01/30 11:27:37;;;;;;;23.98;11.48;;;;;;;-4.12;95.21;97406.72;1748211;81;21156;-68
2021/01/30 11:30:25;;;;;;;27.10;12.90;;;;;;;-4.10;95.16;97410.47;1751698;81;22283;-68
2021/01/30 11:33:14;;;;;;;22.10;10.38;;;;;;;-4.11;94.96;97412.34;1760006;79;21068;-67
2021/01/30 11:35:45;;;;;;;21.40;10.55;;;;;;;-4.13;94.69;97409.68;1752645;79;21147;-69
2021/01/30 11:38:18;;;;;;;27.40;10.93;;;;;;;-4.17;94.69;97408.08;1782523;80;21146;-68
2021/01/30 11:40:49;;;;;;;32.95;13.53;;;;;;;-4.17;94.76;97400.58;1782653;80;21139;-69
2021/01/30 11:43:17;;;;;;;21.40;10.43;;;;;;;-4.15;94.55;97392.53;1782733;80;21337;-69
2021/01/30 11:45:45;;;;;;;24.00;11.57;;;;;;;-4.14;94.15;97385.30;1782598;79;21128;-69
2021/01/30 11:48:13;;;;;;;26.27;10.75;;;;;;;-4.14;93.96;97386.09;1782526;80;21170;-68
2021/01/30 11:50:41;;;;;;;25.27;10.78;;;;;;;-4.13;93.30;97390.38;1782722;80;21619;-68
2021/01/30 11:53:18;;;;;;;26.20;12.15;;;;;;;-4.15;93.32;97388.52;1788607;80;21218;-69
2021/01/30 11:55:46;;;;;;;26.05;12.82;;;;;;;-4.11;93.71;97390.91;1788869;80;22241;-69
2021/01/30 11:58:14;;;;;;;64.35;24.67;;;;;;;-4.02;93.73;97386.56;1788738;80;21186;-69
2021/01/30 12:00:42;;;;;;;54.67;22.52;;;;;;;-3.99;93.47;97388.70;1788667;80;21178;-69